Terminal Aerodrome Forecast
Issued by NWS

Home | Current Version | Previous Version | Graphics & Text | Print | Product List | Glossary On
Versions: 1 2 3 4 5 6 7 8 9 10 11 12 13 14 15 16
974
FTUS41 KCLE 271120
TAFFDY
TAF
KFDY 271120Z 2712/2812 17005KT 4SM BR SCT250
      TEMPO 2712/2713 1 1/2SM BR
     FM271430 VRB03KT P6SM SKC
     FM280000 00000KT P6SM FEW200
     FM281000 00000KT 1 1/2SM BR SKC=

USA.gov is the U.S. government's official web portal to all federal, state and local government web resources and services.